sensor_id;sensor_type;location;lat;lon;timestamp;pressure;altitude;pressure_sealevel;temperature;humidity
75298;BME280;63896;45.990;18.688;2024-02-14T00:02:35;101298.06;;;3.52;100.00
75298;BME280;63896;45.990;18.688;2024-02-14T00:05:39;101302.78;;;3.49;100.00
75298;BME280;63896;45.990;18.688;2024-02-14T00:08:43;101301.59;;;3.43;100.00
75298;BME280;63896;45.990;18.688;2024-02-14T00:11:46;101306.22;;;3.22;100.00
75298;BME280;63896;45.990;18.688;2024-02-14T00:14:50;101307.88;;;3.23;100.00
75298;BME280;63896;45.990;18.688;2024-02-14T00:17:53;101303.03;;;3.28;100.00
75298;BME280;63896;45.990;18.688;2024-02-14T00:20:56;101305.34;;;3.31;100.00
75298;BME280;63896;45.990;18.688;2024-02-14T00:23:59;101303.19;;;3.17;100.00
75298;BME280;63896;45.990;18.688;2024-02-14T00:27:02;101311.06;;;3.17;100.00
75298;BME280;63896;45.990;18.688;2024-02-14T00:30:06;101312.78;;;2.99;100.00
75298;BME280;63896;45.990;18.688;2024-02-14T00:33:09;101311.22;;;3.06;100.00
75298;BME280;63896;45.990;18.688;2024-02-14T00:36:12;101310.47;;;2.86;100.00
75298;BME280;63896;45.990;18.688;2024-02-14T00:39:15;101310.75;;;2.93;100.00
75298;BME280;63896;45.990;18.688;2024-02-14T00:42:18;101311.88;;;3.17;100.00
75298;BME280;63896;45.990;18.688;2024-02-14T00:45:20;101325.47;;;3.03;100.00
75298;BME280;63896;45.990;18.688;2024-02-14T00:48:23;101326.47;;;2.83;100.00
75298;BME280;63896;45.990;18.688;2024-02-14T00:51:26;101321.88;;;3.04;100.00
75298;BME280;63896;45.990;18.688;2024-02-14T00:54:29;101321.06;;;3.04;100.00
75298;BME280;63896;45.990;18.688;2024-02-14T00:57:31;101317.47;;;2.95;100.00
75298;BME280;63896;45.990;18.688;2024-02-14T01:00:35;101324.78;;;3.01;100.00
75298;BME280;63896;45.990;18.688;2024-02-14T01:03:38;101329.59;;;3.06;100.00
75298;BME280;63896;45.990;18.688;2024-02-14T01:06:41;101327.00;;;2.86;100.00
75298;BME280;63896;45.990;18.688;2024-02-14T01:09:44;101327.16;;;2.85;100.00
75298;BME280;63896;45.990;18.688;2024-02-14T01:12:46;101341.69;;;2.70;100.00
75298;BME280;63896;45.990;18.688;2024-02-14T01:15:49;101330.06;;;2.63;100.00
75298;BME280;63896;45.990;18.688;2024-02-14T01:18:52;101328.03;;;2.57;100.00
75298;BME280;63896;45.990;18.688;2024-02-14T01:21:55;101328.44;;;2.52;100.00
75298;BME280;63896;45.990;18.688;2024-02-14T01:25:01;101336.31;;;2.52;100.00
75298;BME280;63896;45.990;18.688;2024-02-14T01:28:05;101347.47;;;2.64;100.00
75298;BME280;63896;45.990;18.688;2024-02-14T01:31:10;101341.34;;;2.82;100.00
75298;BME280;63896;45.990;18.688;2024-02-14T01:34:14;101341.34;;;2.82;100.00
75298;BME280;63896;45.990;18.688;2024-02-14T01:37:17;101349.06;;;3.03;100.00
75298;BME280;63896;45.990;18.688;2024-02-14T01:40:20;101342.84;;;2.95;100.00
75298;BME280;63896;45.990;18.688;2024-02-14T01:43:23;101344.44;;;2.78;100.00
75298;BME280;63896;45.990;18.688;2024-02-14T01:46:26;101340.81;;;2.79;100.00
75298;BME280;63896;45.990;18.688;2024-02-14T01:49:28;101337.38;;;2.88;100.00
75298;BME280;63896;45.990;18.688;2024-02-14T01:52:32;101332.66;;;3.01;100.00
75298;BME280;63896;45.990;18.688;2024-02-14T01:55:35;101332.78;;;3.00;100.00
75298;BME280;63896;45.990;18.688;2024-02-14T01:58:38;101336.81;;;2.84;100.00
75298;BME280;63896;45.990;18.688;2024-02-14T02:01:41;101334.34;;;2.83;100.00
75298;BME280;63896;45.990;18.688;2024-02-14T02:04:44;101339.72;;;2.72;100.00
75298;BME280;63896;45.990;18.688;2024-02-14T02:07:47;101337.25;;;2.61;100.00
75298;BME280;63896;45.990;18.688;2024-02-14T02:10:51;101342.91;;;2.66;100.00
75298;BME280;63896;45.990;18.688;2024-02-14T02:13:54;101345.00;;;2.62;100.00
75298;BME280;63896;45.990;18.688;2024-02-14T02:16:57;101340.44;;;2.45;100.00
75298;BME280;63896;45.990;18.688;2024-02-14T02:20:07;101350.38;;;2.42;100.00
75298;BME280;63896;45.990;18.688;2024-02-14T02:23:11;101346.22;;;2.29;100.00
75298;BME280;63896;45.990;18.688;2024-02-14T02:26:17;101352.69;;;2.16;100.00
75298;BME280;63896;45.990;18.688;2024-02-14T02:29:20;101357.63;;;2.00;100.00
75298;BME280;63896;45.990;18.688;2024-02-14T02:32:24;101357.75;;;1.88;100.00
75298;BME280;63896;45.990;18.688;2024-02-14T02:35:26;101376.19;;;1.77;100.00
75298;BME280;63896;45.990;18.688;2024-02-14T02:38:29;101362.59;;;1.93;100.00
75298;BME280;63896;45.990;18.688;2024-02-14T02:41:32;101377.47;;;2.02;100.00
75298;BME280;63896;45.990;18.688;2024-02-14T02:44:37;101379.84;;;2.15;100.00
75298;BME280;63896;45.990;18.688;2024-02-14T02:47:40;101380.78;;;2.14;100.00
75298;BME280;63896;45.990;18.688;2024-02-14T02:50:43;101379.81;;;2.05;100.00
75298;BME280;63896;45.990;18.688;2024-02-14T02:53:47;101374.41;;;1.97;100.00
75298;BME280;63896;45.990;18.688;2024-02-14T02:56:50;101382.63;;;1.73;100.00
75298;BME280;63896;45.990;18.688;2024-02-14T02:59:53;101383.03;;;1.69;100.00
75298;BME280;63896;45.990;18.688;2024-02-14T03:02:56;101381.97;;;1.81;100.00
75298;BME280;63896;45.990;18.688;2024-02-14T03:05:59;101380.44;;;1.78;100.00
75298;BME280;63896;45.990;18.688;2024-02-14T03:09:02;101384.31;;;1.84;100.00
75298;BME280;63896;45.990;18.688;2024-02-14T03:12:05;101392.31;;;1.92;100.00
75298;BME280;63896;45.990;18.688;2024-02-14T03:15:08;101402.41;;;2.06;100.00
75298;BME280;63896;45.990;18.688;2024-02-14T03:18:13;101398.44;;;2.12;100.00
75298;BME280;63896;45.990;18.688;2024-02-14T03:21:16;101399.66;;;2.17;100.00
75298;BME280;63896;45.990;18.688;2024-02-14T03:24:19;101401.06;;;2.21;100.00
75298;BME280;63896;45.990;18.688;2024-02-14T03:27:21;101410.00;;;2.28;100.00
75298;BME280;63896;45.990;18.688;2024-02-14T03:30:25;101408.06;;;2.11;100.00
75298;BME280;63896;45.990;18.688;2024-02-14T03:33:30;101413.16;;;2.03;100.00
75298;BME280;63896;45.990;18.688;2024-02-14T03:36:32;101422.94;;;2.11;100.00
75298;BME280;63896;45.990;18.688;2024-02-14T03:39:35;101422.78;;;2.03;100.00
75298;BME280;63896;45.990;18.688;2024-02-14T03:42:38;101430.69;;;2.12;100.00
75298;BME280;63896;45.990;18.688;2024-02-14T03:45:44;101431.97;;;1.97;100.00
75298;BME280;63896;45.990;18.688;2024-02-14T03:48:47;101428.34;;;1.79;100.00
75298;BME280;63896;45.990;18.688;2024-02-14T03:51:52;101430.38;;;1.66;100.00
75298;BME280;63896;45.990;18.688;2024-02-14T03:54:57;101434.94;;;1.73;100.00
75298;BME280;63896;45.990;18.688;2024-02-14T03:58:00;101432.91;;;1.77;100.00
75298;BME280;63896;45.990;18.688;2024-02-14T04:01:04;101439.75;;;1.78;100.00
75298;BME280;63896;45.990;18.688;2024-02-14T04:04:07;101441.72;;;1.85;100.00
75298;BME280;63896;45.990;18.688;2024-02-14T04:07:10;101451.31;;;1.75;100.00
75298;BME280;63896;45.990;18.688;2024-02-14T04:10:13;101441.88;;;1.54;100.00
75298;BME280;63896;45.990;18.688;2024-02-14T04:13:16;101442.44;;;1.36;100.00
75298;BME280;63896;45.990;18.688;2024-02-14T04:16:20;101442.84;;;1.32;100.00
75298;BME280;63896;45.990;18.688;2024-02-14T04:19:23;101451.38;;;1.34;100.00
75298;BME280;63896;45.990;18.688;2024-02-14T04:22:26;101460.25;;;1.42;100.00
75298;BME280;63896;45.990;18.688;2024-02-14T04:25:29;101461.13;;;1.32;100.00
75298;BME280;63896;45.990;18.688;2024-02-14T04:28:32;101469.63;;;1.24;100.00
75298;BME280;63896;45.990;18.688;2024-02-14T04:31:35;101461.53;;;1.07;100.00
75298;BME280;63896;45.990;18.688;2024-02-14T04:34:37;101473.09;;;0.93;100.00
75298;BME280;63896;45.990;18.688;2024-02-14T04:37:42;101473.13;;;0.82;100.00
75298;BME280;63896;45.990;18.688;2024-02-14T04:40:48;101476.38;;;0.74;100.00
75298;BME280;63896;45.990;18.688;2024-02-14T04:43:51;101480.53;;;0.77;100.00
75298;BME280;63896;45.990;18.688;2024-02-14T04:46:54;101485.56;;;0.69;100.00
75298;BME280;63896;45.990;18.688;2024-02-14T04:50:01;101483.16;;;0.66;100.00
75298;BME280;63896;45.990;18.688;2024-02-14T04:53:06;101490.81;;;0.58;100.00
75298;BME280;63896;45.990;18.688;2024-02-14T04:56:09;101490.34;;;0.53;100.00
75298;BME280;63896;45.990;18.688;2024-02-14T04:59:12;101499.34;;;0.48;100.00
75298;BME280;63896;45.990;18.688;2024-02-14T05:02:15;101495.06;;;0.47;100.00
75298;BME280;63896;45.990;18.688;2024-02-14T05:05:18;101498.84;;;0.55;100.00
75298;BME280;63896;45.990;18.688;2024-02-14T05:08:21;101494.53;;;0.76;100.00
75298;BME280;63896;45.990;18.688;2024-02-14T05:11:24;101494.03;;;0.82;100.00
75298;BME280;63896;45.990;18.688;2024-02-14T05:14:27;101495.53;;;0.64;100.00
75298;BME280;63896;45.990;18.688;2024-02-14T05:17:34;101497.25;;;0.42;100.00
75298;BME280;63896;45.990;18.688;2024-02-14T05:20:37;101504.84;;;0.23;100.00
75298;BME280;63896;45.990;18.688;2024-02-14T05:23:40;101506.50;;;0.13;100.00
75298;BME280;63896;45.990;18.688;2024-02-14T05:26:46;101506.88;;;0.09;100.00
75298;BME280;63896;45.990;18.688;2024-02-14T05:29:49;101515.66;;;0.08;100.00
75298;BME280;63896;45.990;18.688;2024-02-14T05:32:52;101517.66;;;0.04;100.00
75298;BME280;63896;45.990;18.688;2024-02-14T05:35:55;101516.72;;;0.05;100.00
75298;BME280;63896;45.990;18.688;2024-02-14T05:38:58;101516.59;;;0.07;100.00
75298;BME280;63896;45.990;18.688;2024-02-14T05:42:01;101512.81;;;-0.01;100.00
75298;BME280;63896;45.990;18.688;2024-02-14T05:45:04;101517.19;;;-0.01;100.00
75298;BME280;63896;45.990;18.688;2024-02-14T05:48:08;101532.97;;;-0.03;100.00
75298;BME280;63896;45.990;18.688;2024-02-14T05:51:11;101525.84;;;-0.01;100.00
75298;BME280;63896;45.990;18.688;2024-02-14T05:54:14;101534.03;;;-0.05;100.00
75298;BME280;63896;45.990;18.688;2024-02-14T05:57:17;101545.31;;;-0.05;100.00
75298;BME280;63896;45.990;18.688;2024-02-14T06:00:20;101541.72;;;-0.04;100.00
75298;BME280;63896;45.990;18.688;2024-02-14T06:03:25;101545.16;;;-0.14;100.00
75298;BME280;63896;45.990;18.688;2024-02-14T06:06:28;101550.53;;;0.07;100.00
75298;BME280;63896;45.990;18.688;2024-02-14T06:09:32;101549.69;;;0.06;100.00
75298;BME280;63896;45.990;18.688;2024-02-14T06:12:35;101555.50;;;-0.02;100.00
75298;BME280;63896;45.990;18.688;2024-02-14T06:15:37;101555.72;;;-0.05;100.00
75298;BME280;63896;45.990;18.688;2024-02-14T06:18:40;101556.91;;;0.03;100.00
75298;BME280;63896;45.990;18.688;2024-02-14T06:21:43;101558.09;;;-0.02;100.00
75298;BME280;63896;45.990;18.688;2024-02-14T06:24:47;101562.25;;;0.01;100.00
75298;BME280;63896;45.990;18.688;2024-02-14T06:27:51;101558.22;;;0.08;100.00
75298;BME280;63896;45.990;18.688;2024-02-14T06:30:54;101565.69;;;0.13;100.00
75298;BME280;63896;45.990;18.688;2024-02-14T06:33:57;101570.69;;;0.27;100.00
75298;BME280;63896;45.990;18.688;2024-02-14T06:37:25;101574.94;;;0.61;100.00
75298;BME280;63896;45.990;18.688;2024-02-14T06:40:28;101570.50;;;0.84;100.00
75298;BME280;63896;45.990;18.688;2024-02-14T06:43:32;101573.84;;;1.18;100.00
75298;BME280;63896;45.990;18.688;2024-02-14T06:46:35;101574.06;;;1.26;100.00
75298;BME280;63896;45.990;18.688;2024-02-14T06:49:40;101582.00;;;1.24;100.00
75298;BME280;63896;45.990;18.688;2024-02-14T06:52:44;101580.44;;;1.33;100.00
75298;BME280;63896;45.990;18.688;2024-02-14T06:55:47;101586.69;;;1.41;100.00
75298;BME280;63896;45.990;18.688;2024-02-14T06:58:52;101587.22;;;1.56;100.00
75298;BME280;63896;45.990;18.688;2024-02-14T07:02:04;101581.44;;;1.73;100.00
75298;BME280;63896;45.990;18.688;2024-02-14T07:05:16;101587.00;;;2.10;100.00
75298;BME280;63896;45.990;18.688;2024-02-14T07:08:27;101587.97;;;2.39;100.00
75298;BME280;63896;45.990;18.688;2024-02-14T07:11:32;101590.22;;;3.80;100.00
75298;BME280;63896;45.990;18.688;2024-02-14T07:14:40;101588.81;;;6.86;100.00
75298;BME280;63896;45.990;18.688;2024-02-14T07:17:49;101593.56;;;8.91;98.17
75298;BME280;63896;45.990;18.688;2024-02-14T07:20:55;101595.31;;;10.04;92.28
75298;BME280;63896;45.990;18.688;2024-02-14T07:24:00;101593.09;;;11.11;71.13
75298;BME280;63896;45.990;18.688;2024-02-14T07:27:06;101596.97;;;12.27;65.49
75298;BME280;63896;45.990;18.688;2024-02-14T07:30:14;101592.16;;;12.92;58.32
75298;BME280;63896;45.990;18.688;2024-02-14T07:33:22;101600.72;;;13.34;55.10
75298;BME280;63896;45.990;18.688;2024-02-14T07:36:27;101603.78;;;14.23;51.36
75298;BME280;63896;45.990;18.688;2024-02-14T07:39:33;101606.47;;;14.88;47.79
75298;BME280;63896;45.990;18.688;2024-02-14T07:42:37;101603.81;;;15.25;45.98
75298;BME280;63896;45.990;18.688;2024-02-14T07:45:40;101606.91;;;14.85;47.48
75298;BME280;63896;45.990;18.688;2024-02-14T07:48:47;101605.25;;;15.91;45.29
75298;BME280;63896;45.990;18.688;2024-02-14T07:52:00;101609.53;;;16.53;43.27
75298;BME280;63896;45.990;18.688;2024-02-14T07:55:06;101605.59;;;16.92;43.36
75298;BME280;63896;45.990;18.688;2024-02-14T07:58:25;101599.81;;;16.77;42.23
75298;BME280;63896;45.990;18.688;2024-02-14T08:01:28;101602.00;;;18.62;38.77
75298;BME280;63896;45.990;18.688;2024-02-14T08:04:30;101610.22;;;16.48;42.67
75298;BME280;63896;45.990;18.688;2024-02-14T08:07:34;101600.50;;;17.32;40.90
75298;BME280;63896;45.990;18.688;2024-02-14T08:10:37;101605.91;;;17.96;39.53
75298;BME280;63896;45.990;18.688;2024-02-14T08:13:39;101604.69;;;17.57;40.69
75298;BME280;63896;45.990;18.688;2024-02-14T08:16:43;101609.66;;;17.12;42.68
75298;BME280;63896;45.990;18.688;2024-02-14T08:19:46;101603.78;;;18.45;40.33
75298;BME280;63896;45.990;18.688;2024-02-14T08:22:51;101611.41;;;17.48;39.67
75298;BME280;63896;45.990;18.688;2024-02-14T08:25:54;101609.47;;;18.72;36.84
75298;BME280;63896;45.990;18.688;2024-02-14T08:28:59;101604.97;;;19.17;36.67
75298;BME280;63896;45.990;18.688;2024-02-14T08:32:03;101600.31;;;18.09;38.48
75298;BME280;63896;45.990;18.688;2024-02-14T08:35:06;101597.47;;;18.28;38.31
75298;BME280;63896;45.990;18.688;2024-02-14T08:38:10;101600.56;;;17.55;39.17
75298;BME280;63896;45.990;18.688;2024-02-14T08:41:13;101597.63;;;17.45;38.95
75298;BME280;63896;45.990;18.688;2024-02-14T08:44:16;101605.44;;;18.86;35.71
75298;BME280;63896;45.990;18.688;2024-02-14T08:47:22;101601.25;;;19.18;35.60
75298;BME280;63896;45.990;18.688;2024-02-14T08:50:25;101597.88;;;18.83;35.89
75298;BME280;63896;45.990;18.688;2024-02-14T08:53:28;101592.34;;;18.26;36.75
75298;BME280;63896;45.990;18.688;2024-02-14T08:56:32;101595.84;;;18.03;38.07
75298;BME280;63896;45.990;18.688;2024-02-14T08:59:38;101589.50;;;19.53;35.63
75298;BME280;63896;45.990;18.688;2024-02-14T09:02:41;101593.63;;;18.35;36.41
75298;BME280;63896;45.990;18.688;2024-02-14T09:05:44;101597.00;;;18.31;37.18
75298;BME280;63896;45.990;18.688;2024-02-14T09:08:47;101594.53;;;19.66;33.25
75298;BME280;63896;45.990;18.688;2024-02-14T09:11:50;101596.50;;;19.70;33.73
75298;BME280;63896;45.990;18.688;2024-02-14T09:14:53;101598.28;;;18.63;36.04
75298;BME280;63896;45.990;18.688;2024-02-14T09:17:56;101598.47;;;19.75;34.00
75298;BME280;63896;45.990;18.688;2024-02-14T09:21:00;101600.59;;;19.73;34.59
75298;BME280;63896;45.990;18.688;2024-02-14T09:24:04;101601.91;;;20.64;32.67
75298;BME280;63896;45.990;18.688;2024-02-14T09:27:07;101607.66;;;20.29;32.91
75298;BME280;63896;45.990;18.688;2024-02-14T09:30:13;101598.34;;;20.80;31.88
75298;BME280;63896;45.990;18.688;2024-02-14T09:33:33;101599.94;;;17.71;37.28
75298;BME280;63896;45.990;18.688;2024-02-14T09:36:36;101602.13;;;19.85;35.46
75298;BME280;63896;45.990;18.688;2024-02-14T09:39:39;101607.94;;;20.92;32.58
75298;BME280;63896;45.990;18.688;2024-02-14T09:45:52;101589.53;;;21.70;30.72
75298;BME280;63896;45.990;18.688;2024-02-14T09:48:58;101596.97;;;22.26;30.03
75298;BME280;63896;45.990;18.688;2024-02-14T09:52:31;101604.19;;;20.50;31.67
75298;BME280;63896;45.990;18.688;2024-02-14T09:56:02;101597.84;;;21.95;30.67
75298;BME280;63896;45.990;18.688;2024-02-14T09:59:06;101591.75;;;21.78;30.96
75298;BME280;63896;45.990;18.688;2024-02-14T10:02:18;101586.66;;;20.96;31.13
75298;BME280;63896;45.990;18.688;2024-02-14T10:05:20;101579.25;;;22.04;29.59
75298;BME280;63896;45.990;18.688;2024-02-14T10:08:24;101587.78;;;19.80;32.68
75298;BME280;63896;45.990;18.688;2024-02-14T10:11:30;101589.97;;;21.03;31.21
75298;BME280;63896;45.990;18.688;2024-02-14T10:14:38;101595.69;;;19.70;32.02
75298;BME280;63896;45.990;18.688;2024-02-14T10:17:41;101590.72;;;20.50;31.48
75298;BME280;63896;45.990;18.688;2024-02-14T10:20:56;101587.66;;;20.90;30.46
75298;BME280;63896;45.990;18.688;2024-02-14T10:24:00;101595.59;;;20.15;31.13
75298;BME280;63896;45.990;18.688;2024-02-14T10:27:06;101577.88;;;21.32;32.18
75298;BME280;63896;45.990;18.688;2024-02-14T10:30:12;101578.59;;;21.23;30.36
75298;BME280;63896;45.990;18.688;2024-02-14T10:33:17;101567.81;;;21.55;30.34
75298;BME280;63896;45.990;18.688;2024-02-14T10:36:31;101571.75;;;21.74;30.35
75298;BME280;63896;45.990;18.688;2024-02-14T10:39:37;101571.63;;;21.27;29.01
75298;BME280;63896;45.990;18.688;2024-02-14T10:42:41;101564.47;;;21.43;30.71
75298;BME280;63896;45.990;18.688;2024-02-14T10:45:44;101566.44;;;21.52;30.16
75298;BME280;63896;45.990;18.688;2024-02-14T10:48:50;101570.75;;;22.27;29.80
75298;BME280;63896;45.990;18.688;2024-02-14T10:51:58;101556.22;;;22.43;29.20
75298;BME280;63896;45.990;18.688;2024-02-14T10:55:07;101560.22;;;21.89;29.83
75298;BME280;63896;45.990;18.688;2024-02-14T10:58:12;101551.50;;;22.18;28.70
75298;BME280;63896;45.990;18.688;2024-02-14T11:01:17;101549.94;;;22.27;29.37
75298;BME280;63896;45.990;18.688;2024-02-14T11:04:22;101544.53;;;23.20;27.83
75298;BME280;63896;45.990;18.688;2024-02-14T11:07:27;101549.50;;;21.62;29.35
75298;BME280;63896;45.990;18.688;2024-02-14T11:10:37;101551.00;;;21.84;29.86
75298;BME280;63896;45.990;18.688;2024-02-14T11:13:40;101539.34;;;22.21;29.15
75298;BME280;63896;45.990;18.688;2024-02-14T11:16:45;101540.53;;;21.56;29.95
75298;BME280;63896;45.990;18.688;2024-02-14T11:19:48;101528.88;;;21.51;28.60
75298;BME280;63896;45.990;18.688;2024-02-14T11:23:02;101531.25;;;23.03;28.24
75298;BME280;63896;45.990;18.688;2024-02-14T11:26:07;101523.63;;;22.90;27.68
75298;BME280;63896;45.990;18.688;2024-02-14T11:29:14;101524.47;;;23.06;27.10
75298;BME280;63896;45.990;18.688;2024-02-14T11:32:24;101522.47;;;22.61;28.09
75298;BME280;63896;45.990;18.688;2024-02-14T11:35:33;101511.75;;;23.37;27.95
75298;BME280;63896;45.990;18.688;2024-02-14T11:38:36;101516.03;;;22.10;29.43
75298;BME280;63896;45.990;18.688;2024-02-14T11:41:41;101507.66;;;22.84;27.42
75298;BME280;63896;45.990;18.688;2024-02-14T11:44:47;101508.50;;;23.40;26.92
75298;BME280;63896;45.990;18.688;2024-02-14T11:47:50;101513.72;;;22.44;28.56
75298;BME280;63896;45.990;18.688;2024-02-14T11:50:53;101510.34;;;22.73;29.09
75298;BME280;63896;45.990;18.688;2024-02-14T11:54:04;101506.59;;;22.85;28.50
75298;BME280;63896;45.990;18.688;2024-02-14T11:57:09;101509.72;;;22.56;28.07
75298;BME280;63896;45.990;18.688;2024-02-14T12:00:12;101506.06;;;23.79;26.47
75298;BME280;63896;45.990;18.688;2024-02-14T12:03:21;101504.41;;;22.04;29.66
75298;BME280;63896;45.990;18.688;2024-02-14T12:06:24;101503.94;;;23.55;27.20
75298;BME280;63896;45.990;18.688;2024-02-14T12:09:30;101512.00;;;23.81;26.77
75298;BME280;63896;45.990;18.688;2024-02-14T12:12:34;101499.41;;;21.12;30.69
75298;BME280;63896;45.990;18.688;2024-02-14T12:15:45;101499.56;;;21.06;31.05
75298;BME280;63896;45.990;18.688;2024-02-14T12:18:49;101496.66;;;22.33;29.32
75298;BME280;63896;45.990;18.688;2024-02-14T12:21:53;101492.94;;;21.13;31.14
75298;BME280;63896;45.990;18.688;2024-02-14T12:24:57;101493.91;;;21.34;30.15
75298;BME280;63896;45.990;18.688;2024-02-14T12:28:00;101486.69;;;21.45;30.77
75298;BME280;63896;45.990;18.688;2024-02-14T12:31:06;101489.78;;;21.63;30.20
75298;BME280;63896;45.990;18.688;2024-02-14T12:34:10;101487.56;;;21.50;31.34
75298;BME280;63896;45.990;18.688;2024-02-14T12:37:14;101489.59;;;21.06;31.62
75298;BME280;63896;45.990;18.688;2024-02-14T12:40:19;101490.59;;;21.64;31.58
75298;BME280;63896;45.990;18.688;2024-02-14T12:43:25;101484.50;;;22.30;29.70
75298;BME280;63896;45.990;18.688;2024-02-14T12:46:28;101483.59;;;21.26;29.36
75298;BME280;63896;45.990;18.688;2024-02-14T12:49:34;101488.69;;;21.22;29.85
75298;BME280;63896;45.990;18.688;2024-02-14T12:52:40;101480.25;;;21.14;29.72
75298;BME280;63896;45.990;18.688;2024-02-14T12:55:44;101480.56;;;22.78;28.28
75298;BME280;63896;45.990;18.688;2024-02-14T12:58:49;101488.59;;;21.44;29.58
75298;BME280;63896;45.990;18.688;2024-02-14T13:01:52;101479.47;;;21.18;30.57
75298;BME280;63896;45.990;18.688;2024-02-14T13:04:55;101476.44;;;21.89;29.45
75298;BME280;63896;45.990;18.688;2024-02-14T13:07:58;101483.00;;;20.38;31.20
75298;BME280;63896;45.990;18.688;2024-02-14T13:11:03;101479.22;;;20.93;30.37
75298;BME280;63896;45.990;18.688;2024-02-14T13:14:06;101478.94;;;18.13;33.32
75298;BME280;63896;45.990;18.688;2024-02-14T13:17:09;101476.97;;;18.48;33.60
75298;BME280;63896;45.990;18.688;2024-02-14T13:20:15;101482.28;;;18.71;34.47
75298;BME280;63896;45.990;18.688;2024-02-14T13:23:21;101482.22;;;19.44;32.71
75298;BME280;63896;45.990;18.688;2024-02-14T13:26:24;101468.72;;;20.00;32.41
75298;BME280;63896;45.990;18.688;2024-02-14T13:29:28;101469.03;;;20.25;32.01
75298;BME280;63896;45.990;18.688;2024-02-14T13:32:33;101475.94;;;17.28;35.72
75298;BME280;63896;45.990;18.688;2024-02-14T13:35:36;101469.59;;;18.83;33.04
75298;BME280;63896;45.990;18.688;2024-02-14T13:38:41;101472.56;;;18.42;34.33
75298;BME280;63896;45.990;18.688;2024-02-14T13:41:43;101474.09;;;17.51;35.25
75298;BME280;63896;45.990;18.688;2024-02-14T13:44:47;101475.28;;;19.15;32.94
75298;BME280;63896;45.990;18.688;2024-02-14T13:47:50;101471.00;;;18.86;33.94
75298;BME280;63896;45.990;18.688;2024-02-14T13:50:53;101468.03;;;17.79;35.15
75298;BME280;63896;45.990;18.688;2024-02-14T13:53:56;101475.19;;;17.09;35.35
75298;BME280;63896;45.990;18.688;2024-02-14T13:56:59;101475.84;;;17.69;35.43
75298;BME280;63896;45.990;18.688;2024-02-14T14:00:08;101474.53;;;16.54;36.54
75298;BME280;63896;45.990;18.688;2024-02-14T14:03:15;101476.69;;;16.45;37.46
75298;BME280;63896;45.990;18.688;2024-02-14T14:06:18;101479.56;;;17.45;36.56
75298;BME280;63896;45.990;18.688;2024-02-14T14:09:22;101479.50;;;16.98;37.20
75298;BME280;63896;45.990;18.688;2024-02-14T14:12:24;101473.63;;;17.89;35.29
75298;BME280;63896;45.990;18.688;2024-02-14T14:15:30;101473.25;;;17.28;36.30
75298;BME280;63896;45.990;18.688;2024-02-14T14:18:35;101475.19;;;16.49;38.78
75298;BME280;63896;45.990;18.688;2024-02-14T14:21:38;101471.03;;;16.53;38.31
75298;BME280;63896;45.990;18.688;2024-02-14T14:24:42;101479.41;;;16.27;39.57
75298;BME280;63896;45.990;18.688;2024-02-14T14:27:45;101485.28;;;15.81;38.95
75298;BME280;63896;45.990;18.688;2024-02-14T14:30:48;101480.47;;;15.90;40.09
75298;BME280;63896;45.990;18.688;2024-02-14T14:33:53;101486.34;;;14.23;43.07
75298;BME280;63896;45.990;18.688;2024-02-14T14:36:56;101489.97;;;13.39;45.63
75298;BME280;63896;45.990;18.688;2024-02-14T14:39:59;101487.53;;;13.24;46.33
75298;BME280;63896;45.990;18.688;2024-02-14T14:43:04;101485.59;;;12.85;48.62
75298;BME280;63896;45.990;18.688;2024-02-14T14:46:06;101485.13;;;12.62;49.52
75298;BME280;63896;45.990;18.688;2024-02-14T14:49:09;101492.69;;;12.04;50.55
75298;BME280;63896;45.990;18.688;2024-02-14T14:52:12;101491.88;;;12.10;51.74
75298;BME280;63896;45.990;18.688;2024-02-14T14:55:15;101495.97;;;11.78;52.77
75298;BME280;63896;45.990;18.688;2024-02-14T14:58:18;101505.88;;;11.14;55.22
75298;BME280;63896;45.990;18.688;2024-02-14T15:01:21;101499.00;;;11.20;55.90
75298;BME280;63896;45.990;18.688;2024-02-14T15:04:24;101487.19;;;11.29;56.01
75298;BME280;63896;45.990;18.688;2024-02-14T15:07:27;101489.13;;;10.92;57.64
75298;BME280;63896;45.990;18.688;2024-02-14T15:10:30;101492.66;;;10.99;57.42
75298;BME280;63896;45.990;18.688;2024-02-14T15:13:32;101479.75;;;10.54;59.61
75298;BME280;63896;45.990;18.688;2024-02-14T15:16:36;101488.69;;;10.53;62.13
75298;BME280;63896;45.990;18.688;2024-02-14T15:19:39;101488.06;;;10.51;61.93
75298;BME280;63896;45.990;18.688;2024-02-14T15:22:41;101488.38;;;10.27;64.67
75298;BME280;63896;45.990;18.688;2024-02-14T15:25:44;101494.88;;;10.24;65.23
75298;BME280;63896;45.990;18.688;2024-02-14T15:28:50;101493.75;;;10.04;67.09
75298;BME280;63896;45.990;18.688;2024-02-14T15:32:13;101500.06;;;10.03;67.88
75298;BME280;63896;45.990;18.688;2024-02-14T15:35:35;101502.53;;;9.90;70.06
75298;BME280;63896;45.990;18.688;2024-02-14T15:38:38;101507.38;;;10.01;69.92
75298;BME280;63896;45.990;18.688;2024-02-14T15:41:41;101509.66;;;10.04;68.51
75298;BME280;63896;45.990;18.688;2024-02-14T15:44:44;101504.56;;;10.02;71.34
75298;BME280;63896;45.990;18.688;2024-02-14T15:47:47;101516.41;;;9.77;73.10
75298;BME280;63896;45.990;18.688;2024-02-14T15:50:50;101516.69;;;9.68;75.13
75298;BME280;63896;45.990;18.688;2024-02-14T15:53:52;101519.22;;;9.61;75.67
75298;BME280;63896;45.990;18.688;2024-02-14T15:56:55;101522.13;;;9.51;74.85